Time;durP1;ratioP1;P1;durP2;ratioP2;P2;SDS_P1;SDS_P2;PMS_P1;PMS_P2;Temp;Humidity;BMP_temperature;BMP_pressure;BME280_temperature;BME280_humidity;BME280_pressure;Samples;Min_cycle;Max_cycle;Signal;HPM_P1;HPM_P2
2022/08/24 00:02:21;;;;;;;1.10;1.10;;;;;;;;;;5052612;28;20232;-85
2022/08/24 00:04:49;;;;;;;0.98;0.93;;;;;;;;;;5052486;28;20255;-87
2022/08/24 00:07:18;;;;;;;0.90;0.90;;;;;;;;;;5052299;28;20745;-87
2022/08/24 00:09:46;;;;;;;0.80;0.80;;;;;;;;;;5052331;28;20221;-86
2022/08/24 00:12:13;;;;;;;0.90;0.90;;;;;;;;;;5052103;28;20637;-86
2022/08/24 00:14:41;;;;;;;1.27;1.17;;;;;;;;;;5052573;28;20201;-85
2022/08/24 00:17:11;;;;;;;1.33;1.23;;;;;;;;;;5054578;28;20208;-86
2022/08/24 00:19:39;;;;;;;1.52;1.42;;;;;;;;;;5053687;28;20256;-86
2022/08/24 00:22:06;;;;;;;2.58;1.40;;;;;;;;;;5053768;28;20225;-85
2022/08/24 00:24:34;;;;;;;1.23;1.13;;;;;;;;;;5057313;28;20732;-85
2022/08/24 00:27:01;;;;;;;1.17;1.10;;;;;;;;;;5057234;28;20294;-87
2022/08/24 00:29:29;;;;;;;1.10;1.10;;;;;;;;;;5055099;28;20284;-86
2022/08/24 00:31:56;;;;;;;1.42;1.40;;;;;;;;;;5054919;28;20297;-87
2022/08/24 00:34:26;;;;;;;1.30;1.20;;;;;;;;;;5058273;28;20232;-86
2022/08/24 00:36:54;;;;;;;1.23;1.23;;;;;;;;;;5058525;28;20211;-86
2022/08/24 00:39:22;;;;;;;1.15;1.15;;;;;;;;;;5055644;28;20212;-86
2022/08/24 00:41:51;;;;;;;1.38;1.27;;;;;;;;;;5052421;28;20312;-88
2022/08/24 00:44:20;;;;;;;1.13;1.13;;;;;;;;;;5051967;28;20198;-87
2022/08/24 00:46:52;;;;;;;1.55;1.30;;;;;;;;;;5051820;28;20277;-86
2022/08/24 00:49:27;;;;;;;0.95;0.95;;;;;;;;;;5052297;28;20288;-86
2022/08/24 00:52:05;;;;;;;1.10;1.10;;;;;;;;;;5068930;22;20232;-82
2022/08/24 00:54:37;;;;;;;1.10;1.00;;;;;;;;;;5060265;28;20205;-82
2022/08/24 00:57:09;;;;;;;1.00;1.00;;;;;;;;;;5059074;28;20576;-81
2022/08/24 00:59:41;;;;;;;1.13;1.13;;;;;;;;;;5062500;28;20276;-81
2022/08/24 01:02:14;;;;;;;1.30;1.20;;;;;;;;;;5063468;28;20252;-81
2022/08/24 01:04:48;;;;;;;1.40;1.30;;;;;;;;;;5064826;28;20225;-82
2022/08/24 01:07:16;;;;;;;0.90;0.90;;;;;;;;;;5064568;28;20216;-81
2022/08/24 01:09:44;;;;;;;0.90;0.90;;;;;;;;;;5064190;28;20225;-82
2022/08/24 01:12:11;;;;;;;0.88;0.88;;;;;;;;;;5064379;28;20245;-82
2022/08/24 01:14:39;;;;;;;0.93;0.93;;;;;;;;;;5065277;28;20214;-82
2022/08/24 01:19:57;;;;;;;1.10;1.10;;;;;;;;;;5064150;28;20224;-81
2022/08/24 01:22:49;;;;;;;0.90;0.90;;;;;;;;;;5064670;28;20228;-81
2022/08/24 01:25:19;;;;;;;0.90;0.90;;;;;;;;;;5060893;28;20653;-81
2022/08/24 01:27:47;;;;;;;1.30;1.08;;;;;;;;;;5059335;28;20265;-82
2022/08/24 01:30:17;;;;;;;1.80;1.30;;;;;;;;;;5064658;28;20253;-82
2022/08/24 01:32:54;;;;;;;1.10;1.10;;;;;;;;;;5064092;28;20257;-81
2022/08/24 01:35:22;;;;;;;1.52;1.42;;;;;;;;;;5065025;28;20201;-81
2022/08/24 01:37:50;;;;;;;1.38;1.27;;;;;;;;;;5064436;28;20289;-82
2022/08/24 01:40:20;;;;;;;1.42;1.33;;;;;;;;;;5065259;28;20221;-82
2022/08/24 01:42:49;;;;;;;1.25;1.25;;;;;;;;;;5065220;28;20253;-81
2022/08/24 01:45:17;;;;;;;1.23;1.20;;;;;;;;;;5064887;28;20209;-81
2022/08/24 01:47:45;;;;;;;1.30;1.30;;;;;;;;;;5065067;28;20214;-81
2022/08/24 01:50:13;;;;;;;1.10;1.10;;;;;;;;;;5064774;28;20229;-82
2022/08/24 01:52:43;;;;;;;1.15;1.05;;;;;;;;;;5064162;28;20225;-81
2022/08/24 01:55:14;;;;;;;1.40;1.17;;;;;;;;;;5067503;28;20284;-82
2022/08/24 01:57:43;;;;;;;1.00;1.00;;;;;;;;;;5067850;28;20256;-82
2022/08/24 02:00:14;;;;;;;0.80;0.80;;;;;;;;;;5067987;28;20197;-82
2022/08/24 02:02:43;;;;;;;0.90;0.90;;;;;;;;;;5066969;28;20221;-82
2022/08/24 02:05:12;;;;;;;1.08;1.08;;;;;;;;;;5066344;28;20228;-82
2022/08/24 02:07:40;;;;;;;0.80;0.80;;;;;;;;;;5066201;28;20213;-82
2022/08/24 02:10:10;;;;;;;0.98;0.98;;;;;;;;;;5065835;28;20229;-82
2022/08/24 02:12:42;;;;;;;0.98;0.98;;;;;;;;;;5065727;28;20256;-80
2022/08/24 02:15:11;;;;;;;1.02;1.00;;;;;;;;;;5065604;28;20201;-82
2022/08/24 02:17:39;;;;;;;1.10;1.10;;;;;;;;;;5065796;28;20198;-82
2022/08/24 02:20:09;;;;;;;0.90;0.90;;;;;;;;;;5066180;28;20209;-82
2022/08/24 02:22:36;;;;;;;0.70;0.70;;;;;;;;;;5066469;28;20280;-82
2022/08/24 02:25:05;;;;;;;1.20;1.15;;;;;;;;;;5065726;28;20225;-82
2022/08/24 02:27:32;;;;;;;1.10;1.10;;;;;;;;;;5062757;28;20225;-82
2022/08/24 02:30:01;;;;;;;1.30;1.17;;;;;;;;;;5066147;28;20202;-82
2022/08/24 02:32:29;;;;;;;1.00;1.00;;;;;;;;;;5065703;28;20249;-82
2022/08/24 02:34:56;;;;;;;0.80;0.80;;;;;;;;;;5068091;28;20201;-82
2022/08/24 02:37:24;;;;;;;0.98;0.98;;;;;;;;;;5067284;28;20205;-82
2022/08/24 02:39:51;;;;;;;0.90;0.90;;;;;;;;;;5067965;28;20233;-81
2022/08/24 02:42:19;;;;;;;0.80;0.80;;;;;;;;;;5067719;28;20217;-82
2022/08/24 02:44:46;;;;;;;1.00;1.00;;;;;;;;;;5067070;28;20201;-82
2022/08/24 02:47:16;;;;;;;1.25;1.20;;;;;;;;;;5066318;28;20209;-82
2022/08/24 02:49:43;;;;;;;0.75;0.75;;;;;;;;;;5066828;28;20666;-81
2022/08/24 02:52:11;;;;;;;0.90;0.90;;;;;;;;;;5067950;28;20225;-82
2022/08/24 02:54:40;;;;;;;1.08;1.08;;;;;;;;;;5066798;28;20210;-82
2022/08/24 02:57:08;;;;;;;0.95;0.95;;;;;;;;;;5065593;28;20206;-82
2022/08/24 02:59:36;;;;;;;0.98;0.98;;;;;;;;;;5066118;28;20232;-82
2022/08/24 03:02:04;;;;;;;1.00;1.00;;;;;;;;;;5065558;28;20222;-82
2022/08/24 03:04:33;;;;;;;1.15;1.08;;;;;;;;;;5066385;28;20263;-81
2022/08/24 03:07:01;;;;;;;0.90;0.90;;;;;;;;;;5065250;28;20201;-82
2022/08/24 03:09:28;;;;;;;1.50;1.20;;;;;;;;;;5065452;28;20262;-82
2022/08/24 03:11:56;;;;;;;2.42;1.85;;;;;;;;;;5062631;28;20304;-81
2022/08/24 03:14:23;;;;;;;1.35;1.25;;;;;;;;;;5066335;28;20221;-82
2022/08/24 03:16:51;;;;;;;1.17;1.17;;;;;;;;;;5066522;28;20207;-82
2022/08/24 03:19:19;;;;;;;1.35;1.25;;;;;;;;;;5066897;28;20236;-82
2022/08/24 03:21:48;;;;;;;1.00;1.00;;;;;;;;;;5066793;28;20221;-82
2022/08/24 03:24:15;;;;;;;1.10;1.00;;;;;;;;;;5057228;28;20738;-80
2022/08/24 03:26:43;;;;;;;1.05;1.05;;;;;;;;;;5066232;28;20567;-81
2022/08/24 03:29:11;;;;;;;0.98;0.98;;;;;;;;;;5068585;28;20228;-81
2022/08/24 03:31:38;;;;;;;1.20;1.20;;;;;;;;;;5068295;28;20248;-81
2022/08/24 03:34:06;;;;;;;1.20;1.10;;;;;;;;;;5068189;28;20213;-81
2022/08/24 03:36:33;;;;;;;1.10;0.90;;;;;;;;;;5067430;28;20233;-82
2022/08/24 03:39:03;;;;;;;1.33;1.20;;;;;;;;;;5068937;28;20213;-82
2022/08/24 03:41:31;;;;;;;1.02;1.02;;;;;;;;;;5067941;28;20217;-82
2022/08/24 03:43:58;;;;;;;1.00;1.00;;;;;;;;;;5067232;28;20310;-81
2022/08/24 03:46:29;;;;;;;1.15;1.05;;;;;;;;;;5066997;28;20229;-82
2022/08/24 03:48:58;;;;;;;0.90;0.90;;;;;;;;;;5068704;28;20202;-81
2022/08/24 03:51:29;;;;;;;1.38;1.30;;;;;;;;;;5068350;28;20245;-82
2022/08/24 03:53:58;;;;;;;1.20;1.20;;;;;;;;;;5067254;28;20416;-81
2022/08/24 03:56:28;;;;;;;1.30;1.20;;;;;;;;;;5068809;28;20662;-81
2022/08/24 03:58:56;;;;;;;0.95;0.95;;;;;;;;;;5069019;28;20197;-81
2022/08/24 04:01:24;;;;;;;0.88;0.88;;;;;;;;;;5073466;28;20217;-82
2022/08/24 04:03:52;;;;;;;1.00;1.00;;;;;;;;;;5077433;28;20205;-81
2022/08/24 04:06:21;;;;;;;2.05;1.27;;;;;;;;;;5077678;28;20189;-82
2022/08/24 04:08:50;;;;;;;1.23;1.15;;;;;;;;;;5062207;28;20206;-82
2022/08/24 04:11:24;;;;;;;1.35;1.17;;;;;;;;;;5058407;28;20221;-82
2022/08/24 04:13:55;;;;;;;1.35;1.27;;;;;;;;;;5058646;28;20321;-82
2022/08/24 04:16:24;;;;;;;0.90;0.90;;;;;;;;;;5058351;28;20202;-82
2022/08/24 04:18:52;;;;;;;1.98;1.15;;;;;;;;;;5058018;28;20202;-82
2022/08/24 04:21:21;;;;;;;1.40;1.30;;;;;;;;;;5056208;28;20599;-82
2022/08/24 04:23:51;;;;;;;1.27;1.17;;;;;;;;;;5058631;28;20193;-83
2022/08/24 04:26:19;;;;;;;1.27;1.27;;;;;;;;;;5057368;28;20206;-82
2022/08/24 04:28:47;;;;;;;1.13;1.10;;;;;;;;;;5057347;28;20201;-82
2022/08/24 04:31:16;;;;;;;2.05;1.85;;;;;;;;;;5057844;28;20308;-82
2022/08/24 04:33:45;;;;;;;1.40;1.30;;;;;;;;;;5057889;28;20221;-82
2022/08/24 04:36:14;;;;;;;1.45;1.35;;;;;;;;;;5058058;28;20201;-82
2022/08/24 04:38:41;;;;;;;1.13;1.13;;;;;;;;;;5058718;28;20251;-82
2022/08/24 04:41:11;;;;;;;1.25;1.17;;;;;;;;;;5058192;28;20257;-82
2022/08/24 04:43:41;;;;;;;1.40;1.30;;;;;;;;;;5056479;28;20681;-82
2022/08/24 04:46:10;;;;;;;1.10;1.10;;;;;;;;;;5058593;28;20206;-81
2022/08/24 04:48:39;;;;;;;1.00;1.00;;;;;;;;;;5057999;28;20269;-82
2022/08/24 04:51:10;;;;;;;1.20;1.10;;;;;;;;;;5059106;28;20285;-82
2022/08/24 04:53:38;;;;;;;1.27;1.17;;;;;;;;;;5057396;28;20230;-82
2022/08/24 04:56:12;;;;;;;1.80;1.70;;;;;;;;;;5056620;28;20253;-83
2022/08/24 04:58:40;;;;;;;3.10;1.58;;;;;;;;;;5056706;28;20201;-83
2022/08/24 05:01:09;;;;;;;2.63;1.88;;;;;;;;;;5059754;28;20253;-82
2022/08/24 05:03:37;;;;;;;1.90;1.80;;;;;;;;;;5058825;28;20240;-83
2022/08/24 05:06:06;;;;;;;1.40;1.30;;;;;;;;;;5060579;28;20240;-83
2022/08/24 05:08:34;;;;;;;1.58;1.48;;;;;;;;;;5060472;28;20229;-82
2022/08/24 05:11:07;;;;;;;1.00;1.00;;;;;;;;;;5058038;28;20233;-83
2022/08/24 05:13:35;;;;;;;1.45;1.33;;;;;;;;;;5058630;28;20233;-81
2022/08/24 05:16:05;;;;;;;1.50;1.40;;;;;;;;;;5060087;28;20235;-82
2022/08/24 05:18:32;;;;;;;1.13;1.13;;;;;;;;;;5059893;28;20237;-83
2022/08/24 05:21:01;;;;;;;1.10;1.10;;;;;;;;;;5060917;28;20243;-83
2022/08/24 05:23:30;;;;;;;1.13;1.10;;;;;;;;;;5057660;28;20206;-83
2022/08/24 05:26:06;;;;;;;1.48;1.10;;;;;;;;;;5061694;28;20265;-82
2022/08/24 05:28:35;;;;;;;1.60;1.50;;;;;;;;;;5056795;28;20202;-82
2022/08/24 05:31:11;;;;;;;1.17;1.17;;;;;;;;;;5062172;28;20190;-83
2022/08/24 05:33:39;;;;;;;1.27;1.17;;;;;;;;;;5065528;28;20276;-83
2022/08/24 05:36:15;;;;;;;1.45;1.35;;;;;;;;;;5066438;28;20233;-83
2022/08/24 05:38:44;;;;;;;1.70;1.45;;;;;;;;;;5064061;28;20221;-83
2022/08/24 05:41:11;;;;;;;1.33;1.30;;;;;;;;;;5063520;28;20260;-80
2022/08/24 05:43:39;;;;;;;1.40;1.30;;;;;;;;;;5055437;28;20658;-80
2022/08/24 05:46:06;;;;;;;3.03;1.85;;;;;;;;;;5057315;28;20296;-80
2022/08/24 05:48:36;;;;;;;2.05;1.95;;;;;;;;;;5059102;28;20233;-80
2022/08/24 05:51:04;;;;;;;2.25;1.60;;;;;;;;;;5060203;28;20201;-80
2022/08/24 05:53:32;;;;;;;2.10;1.90;;;;;;;;;;5060220;28;20312;-80
2022/08/24 05:56:03;;;;;;;1.40;1.30;;;;;;;;;;5060260;28;20209;-80
2022/08/24 05:58:31;;;;;;;2.22;2.13;;;;;;;;;;5058857;28;20198;-80
2022/08/24 06:00:59;;;;;;;1.50;1.40;;;;;;;;;;5059648;28;20280;-80
2022/08/24 06:03:26;;;;;;;1.90;1.80;;;;;;;;;;5059354;28;20297;-80
2022/08/24 06:05:54;;;;;;;2.55;1.98;;;;;;;;;;5060331;28;20744;-80
2022/08/24 06:08:22;;;;;;;2.08;1.92;;;;;;;;;;5060295;28;20205;-80
2022/08/24 06:10:50;;;;;;;1.70;1.60;;;;;;;;;;5059359;28;20206;-81
2022/08/24 06:13:19;;;;;;;2.20;2.00;;;;;;;;;;5059074;28;20800;-81
2022/08/24 06:15:47;;;;;;;2.30;2.20;;;;;;;;;;5058392;28;20232;-81
2022/08/24 06:18:14;;;;;;;2.00;1.90;;;;;;;;;;5058633;28;20773;-80
2022/08/24 06:20:43;;;;;;;2.35;2.00;;;;;;;;;;5058684;28;20292;-80
2022/08/24 06:23:10;;;;;;;2.40;2.20;;;;;;;;;;5058851;28;20309;-80
2022/08/24 06:28:26;;;;;;;1.73;1.63;;;;;;;;;;5058121;28;20328;-80
2022/08/24 06:31:03;;;;;;;1.88;1.77;;;;;;;;;;5059726;28;20733;-80
2022/08/24 06:33:30;;;;;;;2.60;2.03;;;;;;;;;;5058280;28;20217;-81
2022/08/24 06:35:58;;;;;;;2.08;1.95;;;;;;;;;;5057180;28;20780;-79
2022/08/24 06:38:25;;;;;;;2.33;1.90;;;;;;;;;;5058010;28;20281;-80
2022/08/24 06:40:53;;;;;;;2.10;2.00;;;;;;;;;;5058807;28;20244;-80
2022/08/24 06:43:23;;;;;;;2.38;2.20;;;;;;;;;;5058940;28;20285;-81
2022/08/24 06:45:53;;;;;;;3.78;2.40;;;;;;;;;;5059644;28;20586;-81
2022/08/24 06:48:21;;;;;;;2.10;1.90;;;;;;;;;;5059059;28;20208;-81
2022/08/24 06:50:49;;;;;;;2.30;2.10;;;;;;;;;;5057988;28;20556;-81
2022/08/24 06:53:17;;;;;;;2.58;2.38;;;;;;;;;;5074442;22;20229;-81
2022/08/24 06:55:46;;;;;;;3.05;2.72;;;;;;;;;;5053388;28;20205;-80
2022/08/24 06:58:14;;;;;;;2.33;2.13;;;;;;;;;;5053827;28;20205;-81
2022/08/24 07:00:42;;;;;;;2.50;2.17;;;;;;;;;;5054189;28;20205;-80
2022/08/24 07:03:11;;;;;;;2.30;2.10;;;;;;;;;;5069925;28;20247;-81
2022/08/24 07:05:39;;;;;;;2.50;2.30;;;;;;;;;;5073331;28;20306;-80
2022/08/24 07:08:07;;;;;;;2.53;2.20;;;;;;;;;;5073463;28;20211;-80
2022/08/24 07:10:36;;;;;;;3.45;2.30;;;;;;;;;;5073562;28;20201;-80
2022/08/24 07:13:03;;;;;;;2.78;2.55;;;;;;;;;;5073835;28;20323;-80
2022/08/24 07:15:31;;;;;;;3.10;2.10;;;;;;;;;;5073265;28;20228;-82
2022/08/24 07:17:59;;;;;;;2.22;2.03;;;;;;;;;;5073035;28;20216;-81
2022/08/24 07:20:30;;;;;;;3.05;1.90;;;;;;;;;;5072849;28;20298;-82
2022/08/24 07:22:58;;;;;;;2.25;2.05;;;;;;;;;;5073154;28;20253;-82
2022/08/24 07:25:25;;;;;;;1.83;1.73;;;;;;;;;;5072940;28;20197;-82
2022/08/24 07:27:53;;;;;;;2.50;2.30;;;;;;;;;;5072458;28;20696;-82
2022/08/24 07:30:20;;;;;;;2.67;2.05;;;;;;;;;;5072821;28;20233;-81
2022/08/24 07:32:48;;;;;;;2.75;2.10;;;;;;;;;;5072869;28;20217;-82
2022/08/24 07:35:15;;;;;;;2.08;1.98;;;;;;;;;;5073053;28;20709;-82
2022/08/24 07:37:44;;;;;;;3.38;2.25;;;;;;;;;;5072512;28;20204;-82
2022/08/24 07:40:12;;;;;;;1.80;1.70;;;;;;;;;;5072278;28;20292;-82
2022/08/24 07:42:40;;;;;;;2.83;2.08;;;;;;;;;;5072339;28;20775;-83
2022/08/24 07:45:08;;;;;;;1.70;1.60;;;;;;;;;;5072239;28;20292;-82
2022/08/24 07:47:36;;;;;;;2.35;1.70;;;;;;;;;;5072343;28;20284;-83
2022/08/24 07:50:04;;;;;;;2.08;1.92;;;;;;;;;;5072353;28;20197;-83
2022/08/24 07:52:32;;;;;;;2.53;2.03;;;;;;;;;;5072084;28;20231;-82
2022/08/24 07:55:01;;;;;;;1.83;1.73;;;;;;;;;;5072229;28;20724;-83
2022/08/24 07:57:29;;;;;;;2.47;1.90;;;;;;;;;;5072280;28;20292;-83
2022/08/24 07:59:58;;;;;;;2.40;2.25;;;;;;;;;;5072349;28;20201;-83
2022/08/24 08:02:26;;;;;;;1.88;1.75;;;;;;;;;;5072271;28;20669;-82
2022/08/24 08:04:55;;;;;;;3.90;2.47;;;;;;;;;;5072658;28;20205;-80
2022/08/24 08:07:23;;;;;;;1.90;1.80;;;;;;;;;;5071699;28;20203;-79
2022/08/24 08:09:51;;;;;;;3.92;2.30;;;;;;;;;;5072361;28;20197;-80
2022/08/24 08:12:20;;;;;;;2.00;1.80;;;;;;;;;;5072629;28;20235;-80
2022/08/24 08:14:48;;;;;;;1.60;1.50;;;;;;;;;;5072922;28;20247;-80
2022/08/24 08:17:16;;;;;;;2.05;1.88;;;;;;;;;;5073331;28;20208;-81
2022/08/24 08:19:44;;;;;;;2.58;1.77;;;;;;;;;;5072357;28;20196;-80
2022/08/24 08:24:56;;;;;;;1.88;1.77;;;;;;;;;;5072348;28;20200;-80
2022/08/24 08:27:25;;;;;;;1.80;1.70;;;;;;;;;;5072409;28;20236;-80
2022/08/24 08:29:52;;;;;;;2.15;2.05;;;;;;;;;;5072709;28;20272;-80
2022/08/24 08:32:20;;;;;;;1.65;1.40;;;;;;;;;;5072604;28;20311;-81
2022/08/24 08:34:48;;;;;;;1.60;1.50;;;;;;;;;;5071874;28;20315;-80
2022/08/24 08:37:16;;;;;;;1.50;1.40;;;;;;;;;;5072426;28;20229;-80
2022/08/24 08:39:44;;;;;;;1.77;1.67;;;;;;;;;;5072862;28;20760;-80
2022/08/24 08:42:45;;;;;;;3.15;1.88;;;;;;;;;;5072301;28;20227;-80
2022/08/24 08:45:30;;;;;;;2.13;2.00;;;;;;;;;;5072469;28;20582;-80
2022/08/24 08:48:35;;;;;;;2.42;2.22;;;;;;;;;;5072491;28;20207;-80
2022/08/24 08:51:58;;;;;;;1.90;1.60;;;;;;;;;;5072375;28;20205;-80
2022/08/24 08:54:45;;;;;;;1.60;1.50;;;;;;;;;;5072351;28;20208;-81
2022/08/24 08:57:32;;;;;;;1.58;1.48;;;;;;;;;;5072074;28;20201;-80
2022/08/24 09:00:13;;;;;;;2.67;1.58;;;;;;;;;;5072561;28;20561;-80
2022/08/24 09:03:12;;;;;;;1.67;1.58;;;;;;;;;;5072201;28;20221;-81
2022/08/24 09:06:10;;;;;;;2.92;1.95;;;;;;;;;;5072580;28;20201;-81
2022/08/24 09:08:58;;;;;;;2.08;1.90;;;;;;;;;;5071952;28;20372;-81
2022/08/24 09:11:34;;;;;;;2.13;1.65;;;;;;;;;;5071208;28;20300;-81
2022/08/24 09:14:31;;;;;;;3.95;2.05;;;;;;;;;;5071754;28;20295;-81
2022/08/24 09:17:19;;;;;;;2.05;1.95;;;;;;;;;;5072202;28;20197;-80
2022/08/24 09:20:06;;;;;;;2.25;1.80;;;;;;;;;;5073005;28;20293;-81
2022/08/24 09:22:37;;;;;;;1.92;1.73;;;;;;;;;;5075884;28;20221;-80
2022/08/24 09:25:23;;;;;;;1.73;1.63;;;;;;;;;;5075697;28;20197;-80
2022/08/24 09:28:19;;;;;;;1.65;1.50;;;;;;;;;;5075148;28;20202;-80
2022/08/24 09:31:05;;;;;;;1.60;1.50;;;;;;;;;;5062241;28;20197;-80
2022/08/24 09:33:40;;;;;;;1.88;1.70;;;;;;;;;;5075348;28;20223;-81
2022/08/24 09:36:11;;;;;;;1.92;1.60;;;;;;;;;;5075515;28;20232;-81
2022/08/24 09:38:58;;;;;;;1.60;1.50;;;;;;;;;;5075207;28;20208;-81
2022/08/24 09:42:31;;;;;;;2.05;1.80;;;;;;;;;;5074854;28;20196;-81
2022/08/24 09:46:07;;;;;;;2.35;1.30;;;;;;;;;;4973840;28;20584;-81
2022/08/24 09:49:02;;;;;;;1.30;1.20;;;;;;;;;;4959039;28;20208;-81
2022/08/24 09:51:54;;;;;;;3.00;1.50;;;;;;;;;;5074652;28;20197;-81
2022/08/24 09:55:15;;;;;;;1.30;1.20;;;;;;;;;;5074736;28;20205;-81
2022/08/24 09:58:02;;;;;;;1.48;1.38;;;;;;;;;;5074625;28;20193;-81
2022/08/24 10:00:34;;;;;;;1.48;1.42;;;;;;;;;;5074773;28;20201;-82
2022/08/24 10:03:28;;;;;;;1.27;1.23;;;;;;;;;;5074038;28;20606;-81
2022/08/24 10:06:20;;;;;;;2.90;1.80;;;;;;;;;;5074372;28;20196;-81
2022/08/24 10:09:11;;;;;;;1.50;1.40;;;;;;;;;;5074507;28;20641;-81
2022/08/24 10:11:45;;;;;;;1.70;1.60;;;;;;;;;;5074341;28;20571;-81
2022/08/24 10:14:19;;;;;;;1.20;1.20;;;;;;;;;;5074540;28;20229;-82
2022/08/24 10:16:58;;;;;;;1.80;1.70;;;;;;;;;;5073910;28;20318;-81
2022/08/24 10:19:53;;;;;;;1.63;1.50;;;;;;;;;;5074259;28;20196;-82
2022/08/24 10:22:38;;;;;;;1.10;1.10;;;;;;;;;;5074177;28;20251;-82
2022/08/24 10:25:30;;;;;;;1.50;1.40;;;;;;;;;;5074809;28;20270;-80
2022/08/24 10:28:09;;;;;;;3.78;1.95;;;;;;;;;;5073835;28;20664;-81
2022/08/24 10:31:01;;;;;;;3.15;1.90;;;;;;;;;;5074033;28;20204;-82
2022/08/24 10:33:32;;;;;;;1.67;1.48;;;;;;;;;;5074170;28;20247;-81
2022/08/24 10:36:36;;;;;;;2.08;1.92;;;;;;;;;;5073606;28;20332;-81
2022/08/24 10:39:44;;;;;;;2.08;1.92;;;;;;;;;;5073905;28;20284;-82
2022/08/24 10:45:56;;;;;;;1.80;1.70;;;;;;;;;;5074142;28;20199;-81
2022/08/24 10:48:57;;;;;;;1.60;1.50;;;;;;;;;;5040166;28;20196;-81
2022/08/24 10:51:35;;;;;;;1.63;1.52;;;;;;;;;;5073462;28;20646;-82
2022/08/24 10:54:05;;;;;;;1.90;1.73;;;;;;;;;;5073896;28;20203;-81
2022/08/24 10:56:43;;;;;;;1.98;1.88;;;;;;;;;;5073282;28;20220;-81
2022/08/24 10:59:24;;;;;;;1.48;1.38;;;;;;;;;;5073381;28;20204;-81
2022/08/24 11:02:06;;;;;;;3.42;1.80;;;;;;;;;;5073313;28;20310;-81
2022/08/24 11:04:36;;;;;;;1.60;1.50;;;;;;;;;;5073654;28;20287;-82
2022/08/24 11:07:09;;;;;;;1.75;1.65;;;;;;;;;;5073235;28;20200;-82
2022/08/24 11:09:47;;;;;;;1.60;1.50;;;;;;;;;;5073475;28;20226;-82
2022/08/24 11:12:28;;;;;;;1.45;1.35;;;;;;;;;;5073766;28;20227;-82
2022/08/24 11:15:00;;;;;;;1.77;1.67;;;;;;;;;;5073883;28;20200;-81
2022/08/24 11:17:31;;;;;;;5.28;1.77;;;;;;;;;;5072843;28;20224;-82
2022/08/24 11:19:59;;;;;;;1.55;1.48;;;;;;;;;;5072833;28;20640;-83
2022/08/24 11:22:36;;;;;;;1.42;1.33;;;;;;;;;;5073042;28;20259;-82
2022/08/24 11:25:14;;;;;;;1.40;1.40;;;;;;;;;;5073053;28;20211;-83
2022/08/24 11:27:46;;;;;;;2.10;1.75;;;;;;;;;;5072585;28;20203;-82
2022/08/24 11:30:26;;;;;;;2.03;1.92;;;;;;;;;;5073244;28;20201;-82
2022/08/24 11:32:56;;;;;;;2.47;1.83;;;;;;;;;;5072795;28;20251;-82
2022/08/24 11:35:27;;;;;;;1.42;1.42;;;;;;;;;;5073189;28;20239;-82
2022/08/24 11:37:58;;;;;;;1.73;1.63;;;;;;;;;;5074403;28;20252;-82
2022/08/24 11:40:29;;;;;;;1.70;1.60;;;;;;;;;;5073042;28;20595;-81
2022/08/24 11:43:36;;;;;;;1.90;1.80;;;;;;;;;;5072388;28;20259;-82
2022/08/24 11:46:13;;;;;;;2.88;1.77;;;;;;;;;;4971803;28;20211;-84
2022/08/24 11:48:50;;;;;;;1.98;1.88;;;;;;;;;;5062564;28;20211;-82
2022/08/24 11:51:32;;;;;;;1.92;1.83;;;;;;;;;;5072512;28;20206;-81
2022/08/24 11:54:05;;;;;;;1.83;1.73;;;;;;;;;;5072704;28;20204;-81
2022/08/24 11:56:39;;;;;;;1.27;1.27;;;;;;;;;;5072363;28;20333;-82
2022/08/24 11:59:16;;;;;;;1.65;1.55;;;;;;;;;;5072316;28;20586;-83
2022/08/24 12:01:50;;;;;;;1.65;1.55;;;;;;;;;;5072291;28;20310;-81
2022/08/24 12:04:41;;;;;;;1.95;1.85;;;;;;;;;;5073178;28;20204;-83
2022/08/24 12:07:23;;;;;;;1.80;1.70;;;;;;;;;;5072442;28;20260;-83
2022/08/24 12:10:12;;;;;;;2.10;2.00;;;;;;;;;;5072260;28;20682;-82
2022/08/24 12:12:46;;;;;;;1.80;1.70;;;;;;;;;;5072509;28;20256;-81
2022/08/24 12:15:20;;;;;;;2.28;2.10;;;;;;;;;;5072194;28;20286;-81
2022/08/24 12:17:53;;;;;;;2.58;2.38;;;;;;;;;;5071832;28;20228;-81
2022/08/24 12:20:26;;;;;;;1.85;1.75;;;;;;;;;;5071821;28;20199;-84
2022/08/24 12:23:01;;;;;;;2.50;1.92;;;;;;;;;;5073772;28;20311;-83
2022/08/24 12:28:23;;;;;;;1.98;1.88;;;;;;;;;;5072102;28;20219;-83
2022/08/24 12:30:54;;;;;;;1.60;1.50;;;;;;;;;;5072617;28;20286;-84
2022/08/24 12:33:26;;;;;;;2.05;1.95;;;;;;;;;;5071956;28;20302;-83
2022/08/24 12:35:58;;;;;;;1.70;1.60;;;;;;;;;;5071904;28;20719;-83
2022/08/24 12:38:28;;;;;;;2.53;1.50;;;;;;;;;;5071694;28;20314;-82
2022/08/24 12:40:58;;;;;;;2.13;1.80;;;;;;;;;;5072011;28;20202;-82
2022/08/24 12:43:30;;;;;;;1.77;1.67;;;;;;;;;;5072013;28;20224;-82
2022/08/24 12:46:00;;;;;;;2.10;2.00;;;;;;;;;;5071953;28;20203;-84
2022/08/24 12:48:34;;;;;;;1.88;1.77;;;;;;;;;;5073143;28;20680;-83
2022/08/24 12:51:15;;;;;;;1.40;1.40;;;;;;;;;;5072387;28;20200;-83
2022/08/24 12:54:12;;;;;;;1.80;1.70;;;;;;;;;;5072068;28;20202;-79
2022/08/24 12:56:59;;;;;;;2.13;2.03;;;;;;;;;;5075660;28;20291;-78
2022/08/24 12:59:29;;;;;;;1.40;1.38;;;;;;;;;;5076015;28;20200;-79
2022/08/24 13:02:02;;;;;;;1.50;1.40;;;;;;;;;;5075475;28;20224;-79
2022/08/24 13:04:39;;;;;;;1.42;1.33;;;;;;;;;;5075598;28;20258;-80
2022/08/24 13:07:11;;;;;;;1.75;1.20;;;;;;;;;;5075366;28;20683;-79
2022/08/24 13:09:43;;;;;;;1.42;1.30;;;;;;;;;;5075697;28;20639;-79
2022/08/24 13:12:55;;;;;;;1.55;1.45;;;;;;;;;;5074720;28;20319;-79
2022/08/24 13:15:59;;;;;;;1.60;1.50;;;;;;;;;;5075726;28;20203;-79
2022/08/24 13:19:17;;;;;;;1.95;1.85;;;;;;;;;;5075477;28;20223;-79
2022/08/24 13:21:57;;;;;;;1.38;1.38;;;;;;;;;;5056489;28;20309;-79
2022/08/24 13:24:44;;;;;;;8.77;1.73;;;;;;;;;;5075283;28;20201;-78
2022/08/24 13:28:11;;;;;;;1.50;1.40;;;;;;;;;;5075006;28;20295;-78
2022/08/24 13:31:19;;;;;;;2.22;2.03;;;;;;;;;;5075362;28;20222;-78
2022/08/24 13:33:50;;;;;;;1.85;1.75;;;;;;;;;;5075681;28;20196;-79
2022/08/24 13:37:03;;;;;;;2.20;2.10;;;;;;;;;;5075657;28;20215;-78
2022/08/24 13:39:54;;;;;;;1.42;1.42;;;;;;;;;;5075075;28;20200;-78
2022/08/24 13:43:12;;;;;;;1.55;1.50;;;;;;;;;;5074812;28;20740;-77
2022/08/24 13:45:45;;;;;;;3.05;1.85;;;;;;;;;;4993309;28;20574;-79
2022/08/24 13:48:27;;;;;;;1.30;1.23;;;;;;;;;;4993060;28;20210;-78
2022/08/24 13:51:29;;;;;;;1.20;1.20;;;;;;;;;;5040199;28;20699;-79
2022/08/24 13:54:19;;;;;;;1.10;1.10;;;;;;;;;;5074844;28;20206;-79
2022/08/24 13:57:02;;;;;;;1.00;1.00;;;;;;;;;;5075447;28;20200;-79
2022/08/24 13:59:58;;;;;;;1.23;1.23;;;;;;;;;;5079872;28;20741;-79
2022/08/24 14:02:36;;;;;;;1.65;1.55;;;;;;;;;;5075281;28;20252;-78
2022/08/24 14:05:13;;;;;;;1.20;1.20;;;;;;;;;;5075447;28;20616;-80
2022/08/24 14:07:54;;;;;;;1.55;1.45;;;;;;;;;;5074494;28;20286;-79
2022/08/24 14:10:41;;;;;;;1.35;1.35;;;;;;;;;;5075313;28;20201;-80
2022/08/24 14:13:29;;;;;;;1.83;1.67;;;;;;;;;;5075838;28;20216;-79
2022/08/24 14:19:05;;;;;;;1.92;1.70;;;;;;;;;;5076871;28;20227;-79
2022/08/24 14:21:40;;;;;;;1.85;1.70;;;;;;;;;;5076339;28;20323;-78
2022/08/24 14:24:13;;;;;;;1.80;1.70;;;;;;;;;;5077234;28;20254;-80
2022/08/24 14:27:09;;;;;;;2.00;1.90;;;;;;;;;;5076730;28;20671;-79
2022/08/24 14:29:48;;;;;;;1.17;1.17;;;;;;;;;;5076610;28;20197;-79
2022/08/24 14:32:36;;;;;;;3.15;1.40;;;;;;;;;;5074701;28;20307;-78
2022/08/24 14:35:36;;;;;;;2.03;1.60;;;;;;;;;;5074425;28;20204;-79
2022/08/24 14:38:35;;;;;;;1.20;1.20;;;;;;;;;;5067633;28;20231;-80
2022/08/24 14:41:18;;;;;;;3.42;1.42;;;;;;;;;;5076198;28;20664;-78
2022/08/24 14:44:20;;;;;;;1.73;1.63;;;;;;;;;;5077184;28;20200;-79
2022/08/24 14:46:59;;;;;;;1.45;1.35;;;;;;;;;;5054733;28;20577;-80
2022/08/24 14:49:37;;;;;;;1.40;1.10;;;;;;;;;;5076337;28;20287;-79
2022/08/24 14:52:21;;;;;;;1.52;1.42;;;;;;;;;;5076302;28;20633;-79
2022/08/24 14:55:07;;;;;;;1.55;1.45;;;;;;;;;;5075163;28;20204;-79
2022/08/24 14:58:15;;;;;;;2.85;1.42;;;;;;;;;;5075150;28;20204;-79
2022/08/24 15:01:28;;;;;;;1.73;1.52;;;;;;;;;;5075074;28;20259;-79
2022/08/24 15:04:34;;;;;;;1.52;1.42;;;;;;;;;;5075064;28;20196;-79
2022/08/24 15:07:26;;;;;;;1.17;1.17;;;;;;;;;;5074383;28;20205;-79
2022/08/24 15:09:55;;;;;;;1.25;1.25;;;;;;;;;;5076141;28;20283;-78
2022/08/24 15:12:41;;;;;;;3.20;1.98;;;;;;;;;;5074579;28;20227;-79
2022/08/24 15:15:17;;;;;;;1.30;1.20;;;;;;;;;;5074329;28;20197;-79
2022/08/24 15:17:57;;;;;;;1.50;1.40;;;;;;;;;;5074207;28;20676;-79
2022/08/24 15:20:53;;;;;;;1.75;1.65;;;;;;;;;;5074128;28;20630;-79
2022/08/24 15:23:28;;;;;;;2.65;1.40;;;;;;;;;;5075026;28;20232;-79
2022/08/24 15:25:59;;;;;;;1.65;1.27;;;;;;;;;;5075658;28;20234;-79
2022/08/24 15:28:31;;;;;;;1.50;1.42;;;;;;;;;;5073966;28;20203;-79
2022/08/24 15:31:02;;;;;;;1.45;1.35;;;;;;;;;;5074664;28;20668;-78
2022/08/24 15:33:31;;;;;;;1.35;1.33;;;;;;;;;;5074242;28;20221;-80
2022/08/24 15:36:11;;;;;;;1.60;1.50;;;;;;;;;;5073864;28;20295;-79
2022/08/24 15:38:40;;;;;;;1.40;1.30;;;;;;;;;;5074102;28;20224;-79
2022/08/24 15:41:13;;;;;;;1.58;1.48;;;;;;;;;;5075382;28;20305;-78
2022/08/24 15:43:45;;;;;;;1.52;1.40;;;;;;;;;;5074738;28;20279;-79
2022/08/24 15:46:15;;;;;;;1.30;1.30;;;;;;;;;;5074075;28;20219;-79
2022/08/24 15:48:46;;;;;;;1.67;1.35;;;;;;;;;;5074149;28;20193;-79
2022/08/24 15:51:34;;;;;;;1.88;1.77;;;;;;;;;;5073796;28;20235;-79